createdAt,value
2022-10-21T00:01:12.982Z,100630.84
2022-10-21T00:04:01.558Z,100623.78
2022-10-21T00:06:49.490Z,100620.00
2022-10-21T00:09:40.709Z,100628.88
2022-10-21T00:12:27.917Z,100630.56
2022-10-21T00:15:14.688Z,100624.28
2022-10-21T00:18:00.914Z,100628.66
2022-10-21T00:20:48.004Z,100624.56
2022-10-21T00:23:34.019Z,100620.63
2022-10-21T00:26:21.870Z,100618.66
2022-10-21T00:29:07.952Z,100621.53
2022-10-21T00:31:54.655Z,100604.88
2022-10-21T00:34:43.301Z,100605.63
2022-10-21T00:37:30.931Z,100605.12
2022-10-21T00:40:18.040Z,100596.00
2022-10-21T00:43:04.827Z,100586.50
2022-10-21T00:45:54.579Z,100583.75
2022-10-21T00:48:43.101Z,100587.47
2022-10-21T00:51:30.700Z,100588.69
2022-10-21T00:54:18.044Z,100580.53
2022-10-21T00:57:11.945Z,100584.22
2022-10-21T01:00:00.585Z,100583.25
2022-10-21T01:02:47.334Z,100589.69
2022-10-21T01:05:37.730Z,100582.72
2022-10-21T01:08:25.701Z,100580.91
2022-10-21T01:11:15.390Z,100571.66
2022-10-21T01:14:24.638Z,100561.12
2022-10-21T01:17:51.221Z,100569.03
2022-10-21T01:21:09.277Z,100566.09
2022-10-21T01:24:29.790Z,100569.13
2022-10-21T01:27:50.161Z,100563.34
2022-10-21T01:30:38.198Z,100568.66
2022-10-21T01:33:52.603Z,100572.16
2022-10-21T01:36:42.895Z,100560.47
2022-10-21T01:39:39.250Z,100560.03
2022-10-21T01:42:32.934Z,100546.09
2022-10-21T01:45:33.648Z,100530.59
2022-10-21T01:48:34.553Z,100525.94
2022-10-21T01:51:22.905Z,100538.00
2022-10-21T01:54:14.297Z,100536.34
2022-10-21T01:57:02.567Z,100540.50
2022-10-21T01:59:49.895Z,100548.06
2022-10-21T02:02:39.732Z,100551.44
2022-10-21T02:05:31.768Z,100542.97
2022-10-21T02:08:17.842Z,100543.22
2022-10-21T02:11:07.749Z,100540.25
2022-10-21T02:14:02.837Z,100543.53
2022-10-21T02:16:50.127Z,100547.50
2022-10-21T02:19:39.131Z,100547.41
2022-10-21T02:22:25.683Z,100559.09
2022-10-21T02:25:23.118Z,100554.28
2022-10-21T02:28:10.078Z,100544.97
2022-10-21T02:31:14.398Z,100545.34
2022-10-21T02:34:14.937Z,100553.56
2022-10-21T02:37:11.254Z,100562.78
2022-10-21T02:40:18.928Z,100560.25
2022-10-21T02:43:11.085Z,100556.72
2022-10-21T02:46:05.953Z,100539.63
2022-10-21T02:48:53.306Z,100541.50
2022-10-21T02:51:41.141Z,100545.53
2022-10-21T02:54:27.361Z,100537.78
2022-10-21T02:57:14.173Z,100531.31
2022-10-21T03:00:00.651Z,100536.06
2022-10-21T03:02:50.765Z,100546.31
2022-10-21T03:05:37.594Z,100541.94
2022-10-21T03:08:23.873Z,100556.16
2022-10-21T03:11:11.547Z,100548.97
2022-10-21T03:13:59.145Z,100551.63
2022-10-21T03:16:45.772Z,100544.00
2022-10-21T03:19:39.032Z,100540.75
2022-10-21T03:22:25.524Z,100541.81
2022-10-21T03:25:14.008Z,100545.19
2022-10-21T03:28:00.383Z,100538.56
2022-10-21T03:30:46.608Z,100535.19
2022-10-21T03:33:33.034Z,100522.09
2022-10-21T03:36:19.972Z,100508.34
2022-10-21T03:39:06.792Z,100515.00
2022-10-21T03:41:53.597Z,100522.91
2022-10-21T03:44:40.368Z,100524.53
2022-10-21T03:47:27.635Z,100509.84
2022-10-21T03:50:17.331Z,100505.75
2022-10-21T03:53:13.780Z,100507.38
2022-10-21T03:56:14.808Z,100501.03
2022-10-21T03:59:06.751Z,100498.44
2022-10-21T04:01:54.680Z,100504.94
2022-10-21T04:04:42.210Z,100493.00
2022-10-21T04:07:32.441Z,100496.88
2022-10-21T04:10:22.989Z,100493.88
2022-10-21T04:13:09.757Z,100483.59
2022-10-21T04:16:00.864Z,100488.53
2022-10-21T04:18:51.277Z,100493.03
2022-10-21T04:21:38.049Z,100479.78
2022-10-21T04:24:24.630Z,100480.34
2022-10-21T04:27:11.287Z,100490.91
2022-10-21T04:29:58.781Z,100488.59
2022-10-21T04:32:56.598Z,100484.28
2022-10-21T04:35:46.518Z,100480.91
2022-10-21T04:38:34.089Z,100468.72
2022-10-21T04:41:29.487Z,100458.59
2022-10-21T04:44:17.509Z,100457.00
2022-10-21T04:47:06.437Z,100454.63
2022-10-21T04:49:54.954Z,100448.06
2022-10-21T04:52:41.902Z,100446.19
2022-10-21T04:55:31.500Z,100457.44
2022-10-21T04:58:21.871Z,100450.81
2022-10-21T05:01:11.839Z,100446.25
2022-10-21T05:04:01.660Z,100453.78
2022-10-21T05:06:49.140Z,100458.41
2022-10-21T05:09:43.634Z,100446.41
2022-10-21T05:12:31.063Z,100451.78
2022-10-21T05:15:17.633Z,100450.69
2022-10-21T05:18:05.608Z,100454.50
2022-10-21T05:20:55.122Z,100446.06
2022-10-21T05:23:42.208Z,100447.81
2022-10-21T05:26:32.770Z,100448.25
2022-10-21T05:29:25.642Z,100465.38
2022-10-21T05:32:18.935Z,100455.59
2022-10-21T05:35:12.377Z,100454.81
2022-10-21T05:37:59.146Z,100464.37
2022-10-21T05:40:45.967Z,100472.19
2022-10-21T05:43:33.766Z,100474.22
2022-10-21T05:46:21.077Z,100457.53
2022-10-21T05:49:12.849Z,100450.09
2022-10-21T05:52:06.484Z,100431.69
2022-10-21T05:57:46.997Z,100449.72
2022-10-21T06:00:35.817Z,100469.88
2022-10-21T06:03:26.007Z,100486.75
2022-10-21T06:06:12.986Z,100484.34
2022-10-21T06:09:01.367Z,100486.22
2022-10-21T06:11:48.930Z,100494.75
2022-10-21T06:14:43.123Z,100502.59
2022-10-21T06:17:30.569Z,100509.19
2022-10-21T06:20:19.630Z,100499.94
2022-10-21T06:23:12.400Z,100493.94
2022-10-21T06:26:01.826Z,100499.41
2022-10-21T06:28:49.169Z,100501.59
2022-10-21T06:31:37.917Z,100498.25
2022-10-21T06:34:27.586Z,100513.34
2022-10-21T06:37:16.511Z,100527.06
2022-10-21T06:40:05.830Z,100516.31
2022-10-21T06:42:53.576Z,100507.03
2022-10-21T06:45:39.985Z,100493.38
2022-10-21T06:48:27.070Z,100499.88
2022-10-21T06:51:20.117Z,100495.06
2022-10-21T06:54:09.886Z,100492.84
2022-10-21T06:56:56.838Z,100487.38
2022-10-21T06:59:47.493Z,100484.94
2022-10-21T07:02:34.489Z,100484.13
2022-10-21T07:05:22.149Z,100489.03
2022-10-21T07:08:12.068Z,100475.91
2022-10-21T07:11:00.884Z,100488.78
2022-10-21T07:13:58.478Z,100479.75
2022-10-21T07:16:55.687Z,100477.50
2022-10-21T07:19:42.641Z,100476.16
2022-10-21T07:22:38.559Z,100479.62
2022-10-21T07:25:27.941Z,100490.72
2022-10-21T07:28:15.923Z,100492.56
2022-10-21T07:31:06.123Z,100495.84
2022-10-21T07:33:53.624Z,100506.38
2022-10-21T07:36:52.852Z,100506.34
2022-10-21T07:39:39.616Z,100511.66
2022-10-21T07:42:28.694Z,100498.72
2022-10-21T07:45:16.578Z,100493.25
2022-10-21T07:48:03.260Z,100484.31
2022-10-21T07:50:52.624Z,100480.38
2022-10-21T07:53:42.530Z,100472.94
2022-10-21T07:56:34.823Z,100476.59
2022-10-21T07:59:23.554Z,100470.63
2022-10-21T08:02:14.164Z,100465.69
2022-10-21T08:05:00.659Z,100457.06
2022-10-21T08:07:48.979Z,100450.16
2022-10-21T08:10:47.521Z,100451.50
2022-10-21T08:13:35.655Z,100458.69
2022-10-21T08:16:25.682Z,100449.50
2022-10-21T08:19:20.508Z,100449.34
2022-10-21T08:22:09.863Z,100438.78
2022-10-21T08:24:56.740Z,100440.53
2022-10-21T08:27:46.524Z,100438.25
2022-10-21T08:30:35.742Z,100433.41
2022-10-21T08:33:26.523Z,100444.78
2022-10-21T08:36:18.088Z,100442.53
2022-10-21T08:39:08.666Z,100436.53
2022-10-21T08:41:55.538Z,100420.44
2022-10-21T08:44:57.102Z,100419.13
2022-10-21T08:47:56.738Z,100413.63
2022-10-21T08:50:50.739Z,100413.59
2022-10-21T08:53:52.466Z,100413.53
2022-10-21T08:56:40.520Z,100411.22
2022-10-21T08:59:28.956Z,100405.31
2022-10-21T09:02:25.616Z,100399.47
2022-10-21T09:05:16.649Z,100390.47
2022-10-21T09:08:15.976Z,100391.44
2022-10-21T09:11:24.625Z,100389.37
2022-10-21T09:14:51.042Z,100395.12
2022-10-21T09:18:33.739Z,100381.06
2022-10-21T09:21:27.588Z,100381.66
2022-10-21T09:24:50.722Z,100378.12
2022-10-21T09:27:55.186Z,100376.41
2022-10-21T09:30:44.405Z,100375.47
2022-10-21T09:33:32.856Z,100380.41
2022-10-21T09:36:49.472Z,100361.63
2022-10-21T09:39:42.148Z,100357.84
2022-10-21T09:42:46.292Z,100349.22
2022-10-21T09:45:45.306Z,100342.56
2022-10-21T09:52:05.114Z,100346.84
2022-10-21T09:54:58.966Z,100337.97
2022-10-21T09:57:54.502Z,100330.47
2022-10-21T10:00:50.790Z,100335.41
2022-10-21T10:03:47.368Z,100327.84
2022-10-21T10:06:46.461Z,100324.47
2022-10-21T10:09:37.105Z,100320.84
2022-10-21T10:12:27.388Z,100316.38
2022-10-21T10:15:31.477Z,100309.72
2022-10-21T10:18:22.687Z,100306.91
2022-10-21T10:21:23.390Z,100297.63
2022-10-21T10:24:21.471Z,100286.12
2022-10-21T10:27:23.384Z,100288.72
2022-10-21T10:30:14.258Z,100287.97
2022-10-21T10:33:08.432Z,100289.44
2022-10-21T10:36:05.569Z,100284.78
2022-10-21T10:38:56.821Z,100289.31
2022-10-21T10:41:47.610Z,100269.16
2022-10-21T10:44:42.962Z,100265.47
2022-10-21T10:47:32.719Z,100267.06
2022-10-21T10:50:38.355Z,100259.69
2022-10-21T11:32:58.427Z,100191.78
2022-10-21T11:39:27.507Z,100182.53
2022-10-21T11:42:25.418Z,100166.13
2022-10-21T11:45:56.673Z,100161.91
2022-10-21T11:49:04.770Z,100165.47
2022-10-21T11:52:37.926Z,100177.28
2022-10-21T11:59:15.125Z,100158.34
2022-10-21T12:02:18.019Z,100145.22
2022-10-21T12:05:32.961Z,100140.38
2022-10-21T12:08:41.344Z,100136.31
2022-10-21T12:11:58.472Z,100142.13
2022-10-21T12:14:58.436Z,100136.44
2022-10-21T12:17:49.127Z,100128.84
2022-10-21T12:20:42.194Z,100121.69
2022-10-21T12:23:32.606Z,100132.37
2022-10-21T12:30:02.443Z,100124.41
2022-10-21T12:33:16.292Z,100121.87
2022-10-21T12:36:21.736Z,100113.03
2022-10-21T12:39:32.853Z,100116.50
2022-10-21T12:42:33.831Z,100117.94
2022-10-21T12:45:30.465Z,100104.81
2022-10-21T12:48:31.519Z,100104.16
2022-10-21T12:51:39.585Z,100099.44
2022-10-21T12:54:43.333Z,100097.72
2022-10-21T12:57:37.128Z,100095.25
2022-10-21T13:00:36.589Z,100091.69
2022-10-21T13:03:56.530Z,100089.09
2022-10-21T13:06:53.275Z,100086.69
2022-10-21T13:09:44.013Z,100094.28
2022-10-21T13:12:40.707Z,100090.72
2022-10-21T13:15:32.478Z,100082.91
2022-10-21T13:19:12.559Z,100079.19
2022-10-21T13:22:14.907Z,100071.44
2022-10-21T13:25:22.877Z,100064.84
2022-10-21T13:28:12.419Z,100065.50
2022-10-21T13:31:00.636Z,100057.97
2022-10-21T13:33:52.725Z,100052.50
2022-10-21T13:36:47.473Z,100051.91
2022-10-21T13:39:42.945Z,100058.25
2022-10-21T13:42:41.226Z,100052.50
2022-10-21T13:48:52.529Z,100050.19
2022-10-21T13:51:47.719Z,100042.38
2022-10-21T13:54:38.528Z,100037.19
2022-10-21T13:57:40.632Z,100042.06
2022-10-21T14:00:32.815Z,100035.94
2022-10-21T14:03:28.073Z,100025.19
2022-10-21T14:06:31.966Z,100024.72
2022-10-21T14:09:24.799Z,100025.12
2022-10-21T14:12:29.773Z,100030.66
2022-10-21T14:15:23.545Z,100032.19
2022-10-21T14:18:29.393Z,100021.78
2022-10-21T14:21:24.608Z,100018.72
2022-10-21T14:24:36.935Z,100021.56
2022-10-21T14:27:45.436Z,100010.44
2022-10-21T14:30:37.105Z,100011.44
2022-10-21T14:36:34.515Z,100013.03
2022-10-21T14:39:37.066Z,100012.47
2022-10-21T14:42:26.550Z,100003.16
2022-10-21T14:45:18.266Z,100000.37
2022-10-21T14:48:28.140Z,100007.56
2022-10-21T14:51:25.616Z,100005.25
2022-10-21T14:54:33.641Z,100002.91
2022-10-21T14:57:50.222Z,100003.28
2022-10-21T15:00:42.492Z,100012.75
2022-10-21T15:03:45.450Z,100004.13
2022-10-21T15:06:38.485Z,100004.00
2022-10-21T15:09:37.750Z,100001.09
2022-10-21T15:12:33.439Z,99988.44
2022-10-21T15:15:53.959Z,99990.41
2022-10-21T15:18:53.974Z,99969.56
2022-10-21T15:21:55.434Z,99979.22
2022-10-21T15:24:51.737Z,99970.72
2022-10-21T15:27:49.069Z,99978.56
2022-10-21T15:33:49.440Z,99986.50
2022-10-21T15:36:37.963Z,99978.87
2022-10-21T15:42:27.503Z,99980.44
2022-10-21T15:45:23.784Z,99976.09
2022-10-21T15:48:12.813Z,99969.75
2022-10-21T15:51:06.640Z,99973.03
2022-10-21T15:53:59.076Z,99975.81
2022-10-21T15:57:04.463Z,99977.53
2022-10-21T16:00:03.472Z,99970.13
2022-10-21T16:02:51.791Z,99964.78
2022-10-21T16:08:43.705Z,99975.16
2022-10-21T16:12:00.137Z,99982.78
2022-10-21T16:17:54.678Z,99990.22
2022-10-21T16:23:53.752Z,99986.00
2022-10-21T16:26:51.494Z,99992.47
2022-10-21T16:29:45.324Z,99996.19
2022-10-21T16:32:45.480Z,99994.44
2022-10-21T16:35:33.827Z,99993.13
2022-10-21T16:41:13.814Z,99988.13
2022-10-21T16:44:02.620Z,99989.91
2022-10-21T16:46:59.258Z,99978.91
2022-10-21T16:50:00.412Z,99991.69
2022-10-21T16:55:56.910Z,99979.19
2022-10-21T16:58:44.737Z,99992.44
2022-10-21T17:01:43.473Z,99984.88
2022-10-21T17:07:32.454Z,99990.12
2022-10-21T17:10:26.449Z,99985.03
2022-10-21T17:22:24.995Z,99986.06
2022-10-21T17:28:21.778Z,99981.03
2022-10-21T17:31:22.464Z,99990.19
2022-10-21T17:37:13.829Z,99972.59
2022-10-21T17:40:00.359Z,99978.87
2022-10-21T17:42:59.545Z,99981.28
2022-10-21T17:45:51.484Z,99980.72
2022-10-21T17:51:39.211Z,99973.38
2022-10-21T17:54:29.154Z,99979.16
2022-10-21T17:57:32.507Z,99989.62
2022-10-21T18:00:26.641Z,99985.75
2022-10-21T18:03:18.378Z,99983.00
2022-10-21T18:06:08.552Z,99970.22
2022-10-21T18:12:12.658Z,99972.63
2022-10-21T18:15:11.428Z,99969.25
2022-10-21T18:18:23.504Z,99959.09
2022-10-21T18:21:18.643Z,99962.66
2022-10-21T18:24:16.020Z,99967.97
2022-10-21T18:27:10.469Z,99971.63
2022-10-21T18:33:11.154Z,99961.94
2022-10-21T18:36:12.462Z,99952.16
2022-10-21T18:39:02.559Z,99951.06
2022-10-21T18:44:58.024Z,99944.78
2022-10-21T18:47:50.128Z,99936.19
2022-10-21T18:50:39.479Z,99931.47
2022-10-21T18:53:32.481Z,99927.66
2022-10-21T18:56:27.433Z,99928.22
2022-10-21T18:59:18.896Z,99922.50
2022-10-21T19:05:16.493Z,99924.94
2022-10-21T19:08:14.572Z,99920.16
2022-10-21T19:11:04.921Z,99918.41
2022-10-21T19:13:55.666Z,99911.31
2022-10-21T19:16:47.568Z,99903.59
2022-10-21T19:19:39.521Z,99895.41
2022-10-21T19:22:37.551Z,99895.63
2022-10-21T19:25:30.814Z,99907.19
2022-10-21T19:28:18.529Z,99913.69
2022-10-21T19:34:04.677Z,99920.62
2022-10-21T19:36:58.793Z,99911.50
2022-10-21T19:39:49.490Z,99912.09
2022-10-21T19:42:37.975Z,99914.78
2022-10-21T19:45:37.399Z,99911.72
2022-10-21T19:48:32.224Z,99916.41
2022-10-21T19:51:25.575Z,99917.94
2022-10-21T19:54:16.498Z,99910.03
2022-10-21T19:57:06.399Z,99915.50
2022-10-21T19:59:56.421Z,99905.88
2022-10-21T20:02:51.146Z,99898.53
2022-10-21T20:05:48.898Z,99900.91
2022-10-21T20:08:42.774Z,99903.16
2022-10-21T20:11:30.670Z,99893.34
2022-10-21T20:14:21.709Z,99899.38
2022-10-21T20:17:09.237Z,99904.09
2022-10-21T20:19:56.051Z,99904.50
2022-10-21T20:22:44.681Z,99889.25
2022-10-21T20:25:41.662Z,99901.28
2022-10-21T20:28:29.136Z,99908.44
2022-10-21T20:31:18.915Z,99904.03
2022-10-21T20:34:06.856Z,99910.34
2022-10-21T20:36:57.622Z,99922.78
2022-10-21T20:39:44.958Z,99915.84
2022-10-21T20:42:32.032Z,99915.69
2022-10-21T20:45:27.676Z,99917.87
2022-10-21T20:48:19.473Z,99914.94
2022-10-21T20:51:07.805Z,99903.19
2022-10-21T20:54:04.456Z,99896.78
2022-10-21T20:56:51.693Z,99903.38
2022-10-21T20:59:41.466Z,99902.59
2022-10-21T21:02:28.133Z,99904.13
2022-10-21T21:05:18.573Z,99910.31
2022-10-21T21:08:14.464Z,99909.28
2022-10-21T21:11:01.623Z,99907.38
2022-10-21T21:13:48.118Z,99901.31
2022-10-21T21:16:34.474Z,99899.50
2022-10-21T21:19:23.122Z,99898.78
2022-10-21T21:22:11.851Z,99896.06
2022-10-21T21:24:58.336Z,99907.53
2022-10-21T21:27:46.145Z,99916.38
2022-10-21T21:30:32.263Z,99907.94
2022-10-21T21:33:19.815Z,99905.78
2022-10-21T21:36:07.609Z,99904.97
2022-10-21T21:38:54.266Z,99885.72
2022-10-21T21:41:40.484Z,99877.44
2022-10-21T21:44:27.382Z,99881.84
2022-10-21T21:47:15.559Z,99890.44
2022-10-21T21:50:02.557Z,99888.97
2022-10-21T21:52:51.932Z,99875.50
2022-10-21T21:55:38.080Z,99872.88
2022-10-21T21:58:24.673Z,99878.19
2022-10-21T22:01:11.951Z,99873.03
2022-10-21T22:03:58.606Z,99869.41
2022-10-21T22:06:46.265Z,99881.50
2022-10-21T22:09:34.673Z,99870.97
2022-10-21T22:12:39.715Z,99874.31
2022-10-21T22:18:33.476Z,99885.09
2022-10-21T22:21:19.745Z,99883.09
2022-10-21T22:24:13.295Z,99889.34
2022-10-21T22:27:01.517Z,99884.06
2022-10-21T22:29:47.335Z,99894.06
2022-10-21T22:32:35.023Z,99892.78
2022-10-21T22:35:20.847Z,99889.63
2022-10-21T22:38:07.398Z,99888.28
2022-10-21T22:40:56.251Z,99883.97
2022-10-21T22:43:43.012Z,99882.44
2022-10-21T22:46:33.961Z,99870.87
2022-10-21T22:49:24.701Z,99869.28
2022-10-21T22:52:10.645Z,99869.56
2022-10-21T22:54:57.395Z,99868.97
2022-10-21T22:57:43.129Z,99865.22
2022-10-21T23:00:30.612Z,99872.63
2022-10-21T23:03:19.494Z,99879.53
2022-10-21T23:06:05.498Z,99867.00
2022-10-21T23:08:52.743Z,99862.19
2022-10-21T23:11:39.175Z,99864.03
2022-10-21T23:14:25.304Z,99857.13
2022-10-21T23:17:12.264Z,99869.94
2022-10-21T23:19:58.556Z,99867.34
2022-10-21T23:22:44.776Z,99872.09
2022-10-21T23:25:31.563Z,99859.19
2022-10-21T23:31:05.583Z,99854.91
2022-10-21T23:33:52.420Z,99855.78
2022-10-21T23:36:38.634Z,99852.97
2022-10-21T23:39:25.090Z,99856.66
2022-10-21T23:42:11.939Z,99852.62
2022-10-21T23:44:58.433Z,99861.00
2022-10-21T23:47:44.395Z,99861.84
2022-10-21T23:50:32.873Z,99863.41
2022-10-21T23:53:19.474Z,99874.06
2022-10-21T23:56:05.815Z,99871.91
2022-10-21T23:58:52.459Z,99871.78
